Time;durP1;ratioP1;P1;durP2;ratioP2;P2;SDS_P1;SDS_P2;PMS_P1;PMS_P2;Temp;Humidity;BMP_temperature;BMP_pressure;BME280_temperature;BME280_humidity;BME280_pressure;Samples;Min_cycle;Max_cycle;Signal;HPM_P1;HPM_P2
2021/09/25 00:00:13;;;;;;;8.00;4.97;;;17.90;99.90;;;;;;5005427;28;20455;-74
2021/09/25 00:02:41;;;;;;;6.60;4.83;;;17.90;99.90;;;;;;5007098;28;20463;-75
2021/09/25 00:05:10;;;;;;;5.57;5.10;;;17.80;99.90;;;;;;5008433;28;20553;-74
2021/09/25 00:07:40;;;;;;;5.67;5.17;;;17.80;99.90;;;;;;5006080;28;20522;-74
2021/09/25 00:10:09;;;;;;;8.53;5.67;;;17.70;99.90;;;;;;4999934;28;21027;-72
2021/09/25 00:12:37;;;;;;;5.20;4.53;;;17.70;99.90;;;;;;5006306;28;20484;-74
2021/09/25 00:15:06;;;;;;;6.00;5.40;;;17.70;99.90;;;;;;5001728;28;20478;-72
2021/09/25 00:17:34;;;;;;;5.87;4.93;;;17.70;99.90;;;;;;4999444;28;20473;-76
2021/09/25 00:20:03;;;;;;;4.83;4.40;;;17.70;99.90;;;;;;5008174;28;20448;-75
2021/09/25 00:22:31;;;;;;;5.33;4.60;;;17.70;99.90;;;;;;5006639;28;20503;-76
2021/09/25 00:25:02;;;;;;;5.80;4.60;;;17.70;99.90;;;;;;5008202;28;20466;-78
2021/09/25 00:27:30;;;;;;;6.30;4.10;;;17.70;99.90;;;;;;5007812;28;20523;-76
2021/09/25 00:30:03;;;;;;;4.90;4.00;;;17.70;99.90;;;;;;4994934;28;20470;-76
2021/09/25 00:32:32;;;;;;;5.30;4.90;;;17.70;99.90;;;;;;5007783;28;20485;-74
2021/09/25 00:35:00;;;;;;;4.37;3.97;;;17.70;99.90;;;;;;5008889;28;20510;-75
2021/09/25 00:37:28;;;;;;;5.00;4.50;;;17.60;99.90;;;;;;5002157;28;20459;-76
2021/09/25 00:39:56;;;;;;;5.37;4.87;;;17.60;99.90;;;;;;5010792;28;20471;-76
2021/09/25 00:42:26;;;;;;;6.53;5.00;;;17.50;99.90;;;;;;5009656;28;20483;-76
2021/09/25 00:44:54;;;;;;;5.70;4.80;;;17.60;99.90;;;;;;5011566;28;20459;-77
2021/09/25 00:47:22;;;;;;;6.20;5.50;;;17.60;99.90;;;;;;5000487;28;20514;-75
2021/09/25 00:49:50;;;;;;;5.37;4.80;;;17.50;99.90;;;;;;5011098;28;20486;-76
2021/09/25 00:52:18;;;;;;;5.43;3.93;;;17.40;99.90;;;;;;5011598;28;20554;-78
2021/09/25 00:54:47;;;;;;;8.50;5.07;;;17.50;99.90;;;;;;5008907;28;20903;-75
2021/09/25 00:57:15;;;;;;;5.33;4.83;;;17.50;99.90;;;;;;5007118;28;20537;-76
2021/09/25 00:59:45;;;;;;;6.70;4.30;;;17.40;99.90;;;;;;5010858;28;20473;-76
2021/09/25 01:02:17;;;;;;;4.67;4.17;;;17.40;99.90;;;;;;5009076;28;21006;-74
2021/09/25 01:04:46;;;;;;;4.63;4.17;;;17.40;99.90;;;;;;5009831;28;20510;-73
2021/09/25 01:07:14;;;;;;;4.43;4.03;;;17.30;99.90;;;;;;5022387;28;20455;-74
2021/09/25 01:09:43;;;;;;;5.87;3.97;;;17.30;99.90;;;;;;5010685;28;20516;-74
2021/09/25 01:12:11;;;;;;;4.53;4.13;;;17.30;99.90;;;;;;5007575;28;20477;-77
2021/09/25 01:14:40;;;;;;;4.70;4.20;;;17.30;99.90;;;;;;5009303;28;20469;-76
2021/09/25 01:17:12;;;;;;;4.20;3.80;;;17.30;99.90;;;;;;5003421;28;20491;-74
2021/09/25 01:19:40;;;;;;;7.37;4.00;;;17.20;99.90;;;;;;5006940;28;20504;-75
2021/09/25 01:22:11;;;;;;;4.67;3.77;;;17.20;99.90;;;;;;5010586;28;20519;-74
2021/09/25 01:24:39;;;;;;;4.80;4.27;;;17.20;99.90;;;;;;5006653;28;20516;-76
2021/09/25 01:27:08;;;;;;;4.30;3.93;;;17.20;99.90;;;;;;5004295;28;20447;-76
2021/09/25 01:29:37;;;;;;;4.57;4.10;;;17.20;99.90;;;;;;4998577;28;20463;-76
2021/09/25 01:32:06;;;;;;;4.90;4.37;;;17.20;99.90;;;;;;5004781;28;20521;-76
2021/09/25 01:34:35;;;;;;;6.30;4.30;;;17.20;99.90;;;;;;5011759;28;20512;-78
2021/09/25 01:37:03;;;;;;;6.03;4.80;;;16.90;99.90;;;;;;5008938;28;20464;-76
2021/09/25 01:39:33;;;;;;;6.13;5.40;;;16.90;99.90;;;;;;5008374;28;20532;-78
2021/09/25 01:42:03;;;;;;;6.03;5.37;;;16.90;99.90;;;;;;5007895;28;20472;-77
2021/09/25 01:44:31;;;;;;;6.43;5.10;;;16.90;99.90;;;;;;5006799;28;20463;-77
2021/09/25 01:47:01;;;;;;;6.50;5.00;;;17.00;99.90;;;;;;5010184;28;20462;-76
2021/09/25 01:49:46;;;;;;;9.67;5.83;;;17.00;99.90;;;;;;5010163;28;20491;-77
2021/09/25 01:52:14;;;;;;;6.30;5.10;;;17.10;99.90;;;;;;5011359;28;20732;-77
2021/09/25 01:54:44;;;;;;;8.43;4.70;;;17.10;99.90;;;;;;5003472;28;20500;-77
2021/09/25 01:57:12;;;;;;;5.17;4.60;;;17.10;99.90;;;;;;5010719;28;20469;-77
2021/09/25 01:59:41;;;;;;;5.87;4.77;;;17.20;99.90;;;;;;5009721;28;20456;-77
2021/09/25 02:02:09;;;;;;;10.00;5.30;;;17.10;99.90;;;;;;5008976;28;20590;-75
2021/09/25 02:04:38;;;;;;;5.17;4.67;;;17.20;99.90;;;;;;5007296;28;20521;-74
2021/09/25 02:07:07;;;;;;;5.67;4.30;;;17.10;99.90;;;;;;5004310;28;20464;-78
2021/09/25 02:09:35;;;;;;;5.77;5.17;;;17.10;99.90;;;;;;5005536;28;20469;-77
2021/09/25 02:12:05;;;;;;;5.13;4.67;;;16.90;99.90;;;;;;5010418;28;20577;-77
2021/09/25 02:14:33;;;;;;;6.67;5.20;;;17.00;99.90;;;;;;5002082;28;20463;-77
2021/09/25 02:17:01;;;;;;;5.50;4.40;;;17.00;99.90;;;;;;5000878;28;20519;-74
2021/09/25 02:19:29;;;;;;;5.90;4.37;;;16.90;99.90;;;;;;5009154;28;20503;-76
2021/09/25 02:21:58;;;;;;;5.27;4.37;;;16.90;99.90;;;;;;4999059;28;20500;-75
2021/09/25 02:24:26;;;;;;;7.13;4.00;;;16.80;99.90;;;;;;5003006;28;20463;-77
2021/09/25 02:26:54;;;;;;;5.00;4.50;;;16.90;99.90;;;;;;5010624;28;20451;-74
2021/09/25 02:29:23;;;;;;;5.73;4.07;;;16.80;99.90;;;;;;5007487;28;20536;-75
2021/09/25 02:31:52;;;;;;;4.20;3.50;;;16.80;99.90;;;;;;5013794;28;20537;-76
2021/09/25 02:34:20;;;;;;;4.60;3.93;;;16.80;99.90;;;;;;5009231;28;20492;-74
2021/09/25 02:36:48;;;;;;;5.43;4.90;;;16.80;99.90;;;;;;5005493;28;20458;-76
2021/09/25 02:39:16;;;;;;;4.70;4.13;;;16.80;99.90;;;;;;5008805;28;20550;-75
2021/09/25 02:41:46;;;;;;;4.10;3.70;;;16.80;99.90;;;;;;5004191;28;21003;-76
2021/09/25 02:44:14;;;;;;;4.83;4.33;;;16.70;99.90;;;;;;5007108;28;20518;-77
2021/09/25 02:46:44;;;;;;;5.00;3.53;;;16.70;99.90;;;;;;5016133;28;20962;-76
2021/09/25 02:49:12;;;;;;;4.90;3.60;;;16.70;99.90;;;;;;5008813;28;20472;-78
2021/09/25 02:51:40;;;;;;;4.03;3.47;;;16.70;99.90;;;;;;5009946;28;20519;-77
2021/09/25 02:54:08;;;;;;;5.00;3.97;;;16.60;99.90;;;;;;5006264;28;20453;-75
2021/09/25 02:56:36;;;;;;;3.60;3.30;;;16.70;99.90;;;;;;5009047;28;20459;-77
2021/09/25 02:59:06;;;;;;;5.10;3.50;;;16.60;99.90;;;;;;5004700;28;20545;-75
2021/09/25 03:01:46;;;;;;;3.83;2.83;;;16.60;99.90;;;;;;4998590;28;20575;-76
2021/09/25 03:04:15;;;;;;;3.50;3.20;;;16.40;99.90;;;;;;5004254;28;20464;-75
2021/09/25 03:06:43;;;;;;;5.00;3.47;;;16.30;99.90;;;;;;5010998;28;20454;-76
2021/09/25 03:09:11;;;;;;;3.30;2.57;;;16.50;99.90;;;;;;5007951;28;20874;-76
2021/09/25 03:11:39;;;;;;;4.83;3.63;;;16.50;99.90;;;;;;5006928;28;20513;-76
2021/09/25 03:14:08;;;;;;;3.23;2.93;;;16.50;99.90;;;;;;5003099;28;20442;-76
2021/09/25 03:16:36;;;;;;;3.70;3.10;;;16.50;99.90;;;;;;5000188;28;20466;-76
2021/09/25 03:19:05;;;;;;;6.77;4.77;;;16.60;99.90;;;;;;5006161;28;20812;-77
2021/09/25 03:21:33;;;;;;;3.40;3.10;;;16.60;99.90;;;;;;5006843;28;20484;-76
2021/09/25 03:24:02;;;;;;;6.30;4.23;;;16.60;99.90;;;;;;5008725;28;20449;-77
2021/09/25 03:26:30;;;;;;;6.20;3.70;;;16.60;99.90;;;;;;5008620;28;20466;-78
2021/09/25 03:28:58;;;;;;;3.90;3.10;;;16.60;99.90;;;;;;5008482;28;20508;-75
2021/09/25 03:31:26;;;;;;;3.63;3.20;;;16.60;99.90;;;;;;5007559;28;20550;-75
2021/09/25 03:33:55;;;;;;;3.50;3.03;;;16.50;99.90;;;;;;5002765;28;20466;-75
2021/09/25 03:36:24;;;;;;;4.20;3.30;;;16.40;99.90;;;;;;5008854;28;20484;-76
2021/09/25 03:38:52;;;;;;;4.20;3.53;;;16.40;99.90;;;;;;5001832;28;20468;-76
2021/09/25 03:41:21;;;;;;;4.00;3.60;;;16.50;99.90;;;;;;5006424;28;20475;-78
2021/09/25 03:43:51;;;;;;;4.50;3.40;;;16.40;99.90;;;;;;5016832;28;20515;-76
2021/09/25 03:46:19;;;;;;;4.93;3.67;;;16.30;99.90;;;;;;5003802;28;20468;-75
2021/09/25 03:48:48;;;;;;;4.70;3.83;;;16.40;99.90;;;;;;5007126;28;20461;-74
2021/09/25 03:51:16;;;;;;;3.63;3.33;;;16.40;99.90;;;;;;5008649;28;21039;-73
2021/09/25 03:53:46;;;;;;;4.20;3.80;;;16.40;99.90;;;;;;5004336;28;20497;-75
2021/09/25 03:56:14;;;;;;;5.60;4.10;;;16.40;99.90;;;;;;5007817;28;20462;-74
2021/09/25 03:58:43;;;;;;;4.57;4.17;;;16.40;99.90;;;;;;5006076;28;20516;-75
2021/09/25 04:01:12;;;;;;;4.33;3.93;;;16.40;99.90;;;;;;5002044;28;20542;-73
2021/09/25 04:03:41;;;;;;;3.87;3.57;;;16.40;99.90;;;;;;5008107;28;20485;-75
2021/09/25 04:06:10;;;;;;;4.30;3.87;;;16.30;99.90;;;;;;5007420;28;20961;-74
2021/09/25 04:08:38;;;;;;;4.50;3.37;;;16.30;99.90;;;;;;5004611;28;20664;-74
2021/09/25 04:11:08;;;;;;;5.00;3.50;;;16.30;99.90;;;;;;5003136;28;20470;-77
2021/09/25 04:13:36;;;;;;;4.60;4.20;;;16.30;99.90;;;;;;5011625;28;20976;-76
2021/09/25 04:16:05;;;;;;;4.57;3.20;;;16.00;99.90;;;;;;5004648;28;20453;-75
2021/09/25 04:18:33;;;;;;;4.10;3.70;;;16.00;99.90;;;;;;5013298;28;20505;-78
2021/09/25 04:21:01;;;;;;;5.27;4.20;;;16.10;99.90;;;;;;5006997;28;20469;-79
2021/09/25 04:23:29;;;;;;;3.93;3.50;;;16.20;99.90;;;;;;5009629;28;21290;-78
2021/09/25 04:25:57;;;;;;;4.93;3.83;;;16.00;99.90;;;;;;5022199;28;20500;-77
2021/09/25 04:28:27;;;;;;;4.20;3.37;;;15.90;99.90;;;;;;4999113;28;20483;-75
2021/09/25 04:30:55;;;;;;;5.17;4.43;;;15.80;99.90;;;;;;5004031;28;20465;-75
2021/09/25 04:33:23;;;;;;;4.63;4.13;;;16.00;99.90;;;;;;5003918;28;20568;-75
2021/09/25 04:35:51;;;;;;;4.77;4.27;;;16.00;99.90;;;;;;5010916;28;20449;-77
2021/09/25 04:38:19;;;;;;;4.73;4.23;;;16.00;99.90;;;;;;5010847;28;20456;-76
2021/09/25 04:40:48;;;;;;;6.07;4.23;;;16.10;99.90;;;;;;5011047;28;20456;-76
2021/09/25 04:43:16;;;;;;;4.83;4.23;;;16.20;99.90;;;;;;5010953;28;20493;-77
2021/09/25 04:45:45;;;;;;;5.37;4.50;;;16.30;99.90;;;;;;5009962;28;20961;-77
2021/09/25 04:48:13;;;;;;;3.97;3.57;;;16.40;99.90;;;;;;5011702;28;20559;-77
2021/09/25 04:50:42;;;;;;;4.90;3.57;;;16.30;99.90;;;;;;5011353;28;20449;-77
2021/09/25 04:53:12;;;;;;;3.40;3.10;;;16.30;99.90;;;;;;5010862;28;20494;-78
2021/09/25 04:55:42;;;;;;;4.50;4.10;;;16.30;99.90;;;;;;5010940;28;20452;-74
2021/09/25 04:58:10;;;;;;;4.10;3.40;;;16.30;99.90;;;;;;5012101;28;20962;-76
2021/09/25 05:00:39;;;;;;;7.13;3.63;;;16.30;99.90;;;;;;5026111;28;20559;-78
2021/09/25 05:03:09;;;;;;;4.73;3.77;;;16.10;99.90;;;;;;5009179;28;20541;-76
2021/09/25 05:05:37;;;;;;;4.80;4.10;;;16.20;99.90;;;;;;5011204;28;20468;-76
2021/09/25 05:08:05;;;;;;;3.93;3.60;;;16.10;99.90;;;;;;5011041;28;20465;-77
2021/09/25 05:10:33;;;;;;;4.17;3.10;;;16.20;99.90;;;;;;5010562;28;20564;-76
2021/09/25 05:13:01;;;;;;;3.17;2.73;;;16.20;99.90;;;;;;5011939;28;20492;-77
2021/09/25 05:15:30;;;;;;;5.97;2.80;;;16.40;99.90;;;;;;5008797;28;20516;-77
2021/09/25 05:17:58;;;;;;;4.03;3.63;;;16.10;99.90;;;;;;5012332;28;20978;-75
2021/09/25 05:20:28;;;;;;;4.30;3.90;;;16.10;99.90;;;;;;5011717;28;20449;-75
2021/09/25 05:22:56;;;;;;;3.00;2.20;;;16.10;99.90;;;;;;5003133;28;20473;-76
2021/09/25 05:25:24;;;;;;;6.47;3.77;;;16.00;99.90;;;;;;5009882;28;20462;-77
2021/09/25 05:27:52;;;;;;;3.80;3.50;;;16.00;99.90;;;;;;5005875;28;20463;-74
2021/09/25 05:30:21;;;;;;;4.33;3.23;;;16.00;99.90;;;;;;5002360;28;20543;-77
2021/09/25 05:32:49;;;;;;;4.20;3.20;;;15.90;99.90;;;;;;5010356;28;21113;-79
2021/09/25 05:35:17;;;;;;;4.97;3.17;;;15.80;99.90;;;;;;5004306;28;20474;-77
2021/09/25 05:37:47;;;;;;;9.23;3.60;;;15.80;99.90;;;;;;5010800;28;20456;-77
2021/09/25 05:40:16;;;;;;;3.60;3.20;;;15.90;99.90;;;;;;5010168;28;20463;-78
2021/09/25 05:42:44;;;;;;;3.90;3.50;;;15.90;99.90;;;;;;5008815;28;21002;-76
2021/09/25 05:45:13;;;;;;;5.60;3.23;;;15.90;99.90;;;;;;5006951;28;20475;-76
2021/09/25 05:47:41;;;;;;;4.40;3.60;;;16.00;99.90;;;;;;5008991;28;20464;-76
2021/09/25 05:50:09;;;;;;;5.60;4.50;;;16.00;99.90;;;;;;5010650;28;20456;-73
2021/09/25 05:52:38;;;;;;;3.50;3.20;;;16.00;99.90;;;;;;5023347;28;20508;-79
2021/09/25 05:55:10;;;;;;;4.03;3.50;;;16.00;99.90;;;;;;5010749;28;20452;-76
2021/09/25 05:57:38;;;;;;;3.83;3.37;;;15.90;99.90;;;;;;5010230;28;21065;-75
2021/09/25 06:00:08;;;;;;;4.30;3.43;;;15.90;99.90;;;;;;5010278;28;20458;-76
2021/09/25 06:02:39;;;;;;;4.50;3.83;;;15.90;99.90;;;;;;5006046;28;20481;-77
2021/09/25 06:05:09;;;;;;;4.07;3.67;;;15.90;99.90;;;;;;4996259;28;20519;-74
2021/09/25 06:07:38;;;;;;;4.40;3.90;;;16.00;99.90;;;;;;5009823;28;20446;-74
2021/09/25 06:10:09;;;;;;;4.22;3.60;;;16.00;99.90;;;;;;5010008;28;20980;-76
2021/09/25 06:12:37;;;;;;;5.80;4.03;;;15.90;99.90;;;;;;5007780;28;20288;-77
2021/09/25 06:15:07;;;;;;;4.60;3.77;;;15.90;99.90;;;;;;5010557;28;20484;-75
2021/09/25 06:17:36;;;;;;;4.23;3.47;;;16.00;99.90;;;;;;5006584;28;20457;-70
2021/09/25 06:20:09;;;;;;;3.93;3.23;;;15.70;99.90;;;;;;5007091;28;20469;-68
2021/09/25 06:22:37;;;;;;;4.30;3.50;;;15.30;99.90;;;;;;5002476;28;20488;-69
2021/09/25 06:25:09;;;;;;;4.67;4.10;;;15.10;99.90;;;;;;5009117;28;20458;-69
2021/09/25 06:27:38;;;;;;;4.03;3.63;;;15.10;99.90;;;;;;5005683;28;20458;-72
2021/09/25 06:30:09;;;;;;;5.30;3.97;;;15.10;1.00;;;;;;5008678;28;20511;-73
2021/09/25 06:32:37;;;;;;;4.90;3.67;;;15.20;1.00;;;;;;5009245;28;20559;-76
2021/09/25 06:35:08;;;;;;;4.90;4.07;;;15.20;1.00;;;;;;5019196;28;21066;-74
2021/09/25 06:37:36;;;;;;;8.10;5.80;;;15.60;99.90;;;;;;5013146;28;20464;-78
2021/09/25 06:40:06;;;;;;;4.47;3.93;;;15.90;99.90;;;;;;5014307;28;20456;-77
2021/09/25 06:42:35;;;;;;;6.97;4.70;;;16.00;99.90;;;;;;5006892;28;20481;-77
2021/09/25 06:45:04;;;;;;;5.03;4.53;;;16.20;99.90;;;;;;5011290;28;20933;-78
2021/09/25 06:47:33;;;;;;;6.73;3.77;;;16.20;99.90;;;;;;5009330;28;20465;-76
2021/09/25 06:50:01;;;;;;;4.73;4.27;;;16.30;99.90;;;;;;5008224;28;20472;-75
2021/09/25 06:52:30;;;;;;;5.80;3.80;;;16.50;99.90;;;;;;5008554;28;20476;-78
2021/09/25 06:54:58;;;;;;;5.53;3.97;;;16.60;99.90;;;;;;5008500;28;20903;-77
2021/09/25 06:57:26;;;;;;;6.93;3.90;;;16.70;99.90;;;;;;4994004;28;20463;-77
2021/09/25 06:59:56;;;;;;;6.17;3.37;;;16.80;99.90;;;;;;5000662;28;20944;-77
2021/09/25 07:02:24;;;;;;;6.63;4.10;;;16.80;99.90;;;;;;5012059;28;20477;-78
2021/09/25 07:04:52;;;;;;;3.60;3.27;;;16.90;99.90;;;;;;5013414;28;20435;-76
2021/09/25 07:07:21;;;;;;;5.10;3.77;;;17.00;99.90;;;;;;5027847;28;20450;-77
2021/09/25 07:09:49;;;;;;;5.63;3.77;;;17.00;99.90;;;;;;5012208;28;20440;-76
2021/09/25 07:12:17;;;;;;;5.10;3.33;;;17.10;99.90;;;;;;5012437;28;21014;-76
2021/09/25 07:14:45;;;;;;;3.37;3.07;;;17.20;99.90;;;;;;5012254;28;20531;-76
2021/09/25 07:17:14;;;;;;;4.00;3.40;;;17.30;99.90;;;;;;5012392;28;20951;-77
2021/09/25 07:19:42;;;;;;;3.57;3.27;;;17.30;99.90;;;;;;5012655;28;20458;-77
2021/09/25 07:22:11;;;;;;;3.63;3.20;;;17.40;99.90;;;;;;5010978;28;20510;-78
2021/09/25 07:24:40;;;;;;;4.13;3.43;;;17.40;99.90;;;;;;5008947;28;20978;-78
2021/09/25 07:27:08;;;;;;;4.20;3.20;;;17.50;99.90;;;;;;5010229;28;20475;-75
2021/09/25 07:29:36;;;;;;;3.88;3.53;;;17.60;99.90;;;;;;5010475;28;20476;-77
2021/09/25 07:32:05;;;;;;;4.57;3.70;;;17.70;99.90;;;;;;5001896;28;20225;-76
2021/09/25 07:34:34;;;;;;;3.80;2.80;;;17.70;99.90;;;;;;5005197;28;20484;-79
2021/09/25 07:37:02;;;;;;;3.87;3.50;;;17.80;99.90;;;;;;5007306;28;20912;-78
2021/09/25 07:39:32;;;;;;;3.63;3.07;;;17.90;99.90;;;;;;5004941;28;20460;-77
2021/09/25 07:42:00;;;;;;;5.63;3.20;;;18.00;99.90;;;;;;5011657;28;20528;-77
2021/09/25 07:44:28;;;;;;;4.60;3.73;;;18.10;99.90;;;;;;5009679;28;20483;-76
2021/09/25 07:46:57;;;;;;;3.77;3.20;;;18.30;99.90;;;;;;5010468;28;20453;-77
2021/09/25 07:49:25;;;;;;;3.60;3.30;;;18.50;99.90;;;;;;5021489;28;20453;-76
2021/09/25 07:51:54;;;;;;;3.93;3.50;;;18.70;99.90;;;;;;4994746;28;20637;-79
2021/09/25 07:54:23;;;;;;;4.00;3.50;;;19.00;99.90;;;;;;5011758;28;20858;-77
2021/09/25 07:56:51;;;;;;;4.70;4.30;;;19.30;99.90;;;;;;5031826;28;20447;-77
2021/09/25 07:59:20;;;;;;;5.20;3.97;;;19.50;99.90;;;;;;5030200;28;20510;-79
2021/09/25 08:01:49;;;;;;;4.03;3.23;;;19.70;99.90;;;;;;5031175;28;20456;-78
2021/09/25 08:04:18;;;;;;;4.20;3.00;;;20.10;99.90;;;;;;5023353;28;20454;-78
2021/09/25 08:06:46;;;;;;;3.50;2.60;;;20.40;99.90;;;;;;5012163;28;20461;-78
2021/09/25 08:09:16;;;;;;;3.70;3.33;;;20.70;99.90;;;;;;5010377;28;20457;-78
2021/09/25 08:11:44;;;;;;;3.10;2.83;;;20.90;99.90;;;;;;5016664;28;21125;-77
2021/09/25 08:14:12;;;;;;;3.33;2.60;;;21.10;99.90;;;;;;5010483;28;20479;-79
2021/09/25 08:16:41;;;;;;;3.10;2.70;;;21.30;99.90;;;;;;5011546;28;20493;-79
2021/09/25 08:19:09;;;;;;;2.67;2.50;;;21.60;99.90;;;;;;5010050;28;20459;-78
2021/09/25 08:21:37;;;;;;;2.87;2.63;;;21.90;99.90;;;;;;5026852;28;21006;-78
2021/09/25 08:24:06;;;;;;;3.00;2.50;;;22.00;99.90;;;;;;5007395;28;20464;-78
2021/09/25 08:26:35;;;;;;;2.33;2.13;;;22.20;99.90;;;;;;5011637;28;20453;-78
2021/09/25 08:29:04;;;;;;;2.33;2.17;;;22.40;99.90;;;;;;5010843;28;20484;-78
2021/09/25 08:31:32;;;;;;;3.17;2.77;;;22.50;99.90;;;;;;5011146;28;20448;-77
2021/09/25 08:34:00;;;;;;;3.27;2.50;;;22.70;99.90;;;;;;5009624;28;21278;-79
2021/09/25 08:36:28;;;;;;;2.97;2.30;;;22.80;99.90;;;;;;5011598;28;21008;-76
2021/09/25 08:39:07;;;;;;;4.53;2.83;;;23.00;99.90;;;;;;5008228;28;20452;-77
2021/09/25 08:41:38;;;;;;;2.90;2.70;;;23.10;99.90;;;;;;5010522;28;20457;-78
2021/09/25 08:44:06;;;;;;;2.67;2.43;;;23.10;99.90;;;;;;5009823;28;20442;-77
2021/09/25 08:46:36;;;;;;;2.87;2.40;;;23.30;99.90;;;;;;5011381;28;20457;-78
2021/09/25 08:49:05;;;;;;;2.67;2.47;;;23.30;99.90;;;;;;5008858;28;20457;-78
2021/09/25 08:51:34;;;;;;;2.43;2.20;;;23.30;99.90;;;;;;5008502;28;20448;-80
2021/09/25 08:54:02;;;;;;;2.70;2.50;;;23.10;99.90;;;;;;5009424;28;20445;-79
2021/09/25 08:56:30;;;;;;;3.90;2.60;;;23.40;99.90;;;;;;5006503;28;20473;-79
2021/09/25 08:59:00;;;;;;;2.60;2.40;;;23.60;99.90;;;;;;5016516;28;20536;-78
2021/09/25 09:01:29;;;;;;;2.53;2.33;;;23.60;99.90;;;;;;5014158;28;20449;-79
2021/09/25 09:03:59;;;;;;;3.10;2.73;;;23.80;99.90;;;;;;5012521;28;20968;-79
2021/09/25 09:06:30;;;;;;;2.50;2.30;;;24.00;99.90;;;;;;5013455;28;20626;-78
2021/09/25 09:09:03;;;;;;;2.80;2.50;;;23.90;99.90;;;;;;5011373;28;20438;-80
2021/09/25 09:11:31;;;;;;;2.90;2.70;;;24.00;99.90;;;;;;5011998;28;20448;-79
2021/09/25 09:14:03;;;;;;;3.60;2.70;;;24.00;99.90;;;;;;5013313;28;20515;-78
2021/09/25 09:16:32;;;;;;;2.67;2.33;;;24.20;99.90;;;;;;5013476;28;20973;-78
2021/09/25 09:19:00;;;;;;;2.40;2.20;;;24.10;99.90;;;;;;5013857;28;20469;-79
2021/09/25 09:21:30;;;;;;;2.63;2.43;;;24.00;99.90;;;;;;5012150;28;20457;-77
2021/09/25 09:24:04;;;;;;;2.90;2.70;;;24.20;99.90;;;;;;5012828;28;20823;-78
2021/09/25 09:26:34;;;;;;;2.70;2.50;;;24.30;99.90;;;;;;5013369;28;20504;-78
2021/09/25 09:29:06;;;;;;;2.73;2.40;;;24.20;99.90;;;;;;5013107;28;20471;-78
2021/09/25 09:31:34;;;;;;;2.40;2.20;;;24.20;99.90;;;;;;5011091;28;21137;-78
2021/09/25 09:34:04;;;;;;;2.63;2.30;;;24.10;99.90;;;;;;5011627;28;21061;-79
2021/09/25 09:36:35;;;;;;;2.90;2.70;;;24.40;99.90;;;;;;5012501;28;20477;-80
2021/09/25 09:39:08;;;;;;;2.40;2.20;;;24.50;99.90;;;;;;5012534;28;20996;-80
2021/09/25 09:41:38;;;;;;;2.63;2.43;;;24.60;99.90;;;;;;5011811;28;20461;-78
2021/09/25 09:44:10;;;;;;;3.40;2.40;;;24.40;99.90;;;;;;5013438;28;20434;-80
2021/09/25 09:46:41;;;;;;;3.23;2.93;;;24.50;99.90;;;;;;5011885;28;20495;-77
2021/09/25 09:49:13;;;;;;;4.40;2.83;;;24.70;99.90;;;;;;5013073;28;20481;-79
2021/09/25 09:51:47;;;;;;;2.93;2.73;;;24.70;99.90;;;;;;5011078;28;20519;-79
2021/09/25 09:54:19;;;;;;;3.00;2.50;;;24.80;99.90;;;;;;5012163;28;20465;-79
2021/09/25 09:56:48;;;;;;;3.07;2.77;;;24.90;99.90;;;;;;5011429;28;20543;-78
2021/09/25 09:59:18;;;;;;;3.40;2.83;;;25.00;99.90;;;;;;5013079;28;20465;-78
2021/09/25 10:01:46;;;;;;;3.70;3.40;;;25.10;99.90;;;;;;5011434;28;20465;-78
2021/09/25 10:04:16;;;;;;;3.07;2.87;;;25.10;99.90;;;;;;5010964;28;20527;-78
2021/09/25 10:06:45;;;;;;;3.47;3.27;;;25.10;99.90;;;;;;5011875;28;20442;-78
2021/09/25 10:09:15;;;;;;;2.97;2.73;;;25.20;99.90;;;;;;5012389;28;20441;-77
2021/09/25 10:11:46;;;;;;;3.00;2.70;;;25.10;99.90;;;;;;5030668;28;20576;-78
2021/09/25 10:14:19;;;;;;;2.83;2.63;;;25.00;99.90;;;;;;5031085;28;20444;-78
2021/09/25 10:16:48;;;;;;;2.67;2.47;;;25.10;99.90;;;;;;5031402;28;20605;-77
2021/09/25 10:19:18;;;;;;;3.00;2.40;;;25.20;99.90;;;;;;5014157;28;20897;-79
2021/09/25 10:21:48;;;;;;;3.00;2.70;;;25.30;99.90;;;;;;5011911;28;21110;-77
2021/09/25 10:24:24;;;;;;;2.57;2.40;;;25.40;99.90;;;;;;5008941;28;20470;-80
2021/09/25 10:26:54;;;;;;;2.73;2.53;;;25.40;99.90;;;;;;5010208;28;20500;-78
2021/09/25 10:29:25;;;;;;;2.83;2.63;;;25.60;99.90;;;;;;5011981;28;20438;-78
2021/09/25 10:32:21;;;;;;;2.43;2.23;;;25.70;99.90;;;;;;5010061;28;20481;-78
2021/09/25 10:35:12;;;;;;;2.93;2.73;;;25.80;99.90;;;;;;5005759;28;20993;-78
2021/09/25 10:37:42;;;;;;;3.20;2.90;;;25.80;99.90;;;;;;5004636;28;21123;-77
2021/09/25 10:40:32;;;;;;;3.17;2.80;;;26.20;99.90;;;;;;5007162;28;20442;-77
2021/09/25 10:43:05;;;;;;;3.00;2.73;;;26.40;99.90;;;;;;5008165;28;20477;-77
2021/09/25 10:45:36;;;;;;;3.00;2.70;;;26.50;99.90;;;;;;5009177;28;20508;-77
2021/09/25 10:48:06;;;;;;;4.20;3.80;;;26.60;99.90;;;;;;5010773;28;20481;-79
2021/09/25 10:50:40;;;;;;;4.23;2.80;;;26.80;99.90;;;;;;5011042;28;20538;-78
2021/09/25 10:53:10;;;;;;;3.83;3.53;;;27.10;99.90;;;;;;5005878;28;20455;-78
2021/09/25 10:55:41;;;;;;;9.10;4.17;;;27.60;99.90;;;;;;5009190;28;20965;-78
2021/09/25 10:58:21;;;;;;;11.60;4.50;;;27.50;99.90;;;;;;5006032;28;20464;-75
2021/09/25 11:01:00;;;;;;;3.83;3.40;;;27.40;99.90;;;;;;5011475;28;20515;-78
2021/09/25 11:04:08;;;;;;;10.90;6.40;;;27.30;99.90;;;;;;5011491;28;20543;-77
2021/09/25 11:06:43;;;;;;;5.10;3.53;;;27.00;99.90;;;;;;5009572;28;20465;-78
2021/09/25 11:09:26;;;;;;;4.60;4.20;;;26.90;99.90;;;;;;5006691;28;20449;-75
2021/09/25 11:11:55;;;;;;;3.27;2.47;;;26.90;99.90;;;;;;5005550;28;20546;-76
2021/09/25 11:14:28;;;;;;;3.53;3.27;;;26.80;99.90;;;;;;5010479;28;20468;-76
2021/09/25 11:17:07;;;;;;;11.30;6.67;;;27.00;99.90;;;;;;4998269;28;20462;-76
2021/09/25 11:19:44;;;;;;;4.53;3.00;;;26.90;99.90;;;;;;5005935;28;20449;-77
2021/09/25 11:22:19;;;;;;;5.90;3.50;;;26.70;99.90;;;;;;5003534;28;20488;-78
2021/09/25 11:24:50;;;;;;;3.97;3.67;;;26.50;99.90;;;;;;5008213;28;20461;-77
2021/09/25 11:27:21;;;;;;;2.80;2.60;;;26.40;99.90;;;;;;5009683;28;20511;-79
2021/09/25 11:30:03;;;;;;;5.27;3.50;;;26.40;99.90;;;;;;5006220;28;20468;-77
2021/09/25 11:32:34;;;;;;;3.10;2.57;;;26.40;99.90;;;;;;5007257;28;20512;-77
2021/09/25 11:35:07;;;;;;;5.83;3.67;;;26.20;99.90;;;;;;5008008;28;20473;-77
2021/09/25 11:37:35;;;;;;;5.63;3.23;;;26.20;99.90;;;;;;5006062;28;20488;-78
2021/09/25 11:40:04;;;;;;;2.73;2.53;;;26.30;99.90;;;;;;5011790;28;20461;-77
2021/09/25 11:42:33;;;;;;;3.47;3.10;;;26.30;99.90;;;;;;5009602;28;20469;-79
2021/09/25 11:45:04;;;;;;;5.50;2.60;;;26.20;99.90;;;;;;5005086;28;20453;-75
2021/09/25 11:47:36;;;;;;;2.90;2.47;;;26.20;99.90;;;;;;5007308;28;20712;-75
2021/09/25 11:50:17;;;;;;;3.67;2.83;;;26.20;99.90;;;;;;5009612;28;20450;-76
2021/09/25 11:52:47;;;;;;;3.33;3.00;;;26.30;99.90;;;;;;5010823;28;21075;-78
2021/09/25 11:55:16;;;;;;;3.80;2.67;;;26.30;99.90;;;;;;5007814;28;20519;-79
2021/09/25 11:57:49;;;;;;;2.80;2.60;;;26.30;99.90;;;;;;5002192;28;20493;-76
2021/09/25 12:00:24;;;;;;;2.77;2.53;;;26.30;99.90;;;;;;5001454;28;20449;-78
2021/09/25 12:02:55;;;;;;;3.93;3.03;;;26.30;99.90;;;;;;5002845;28;20469;-76
2021/09/25 12:05:30;;;;;;;4.27;2.90;;;26.30;99.90;;;;;;5006034;28;20588;-75
2021/09/25 12:08:01;;;;;;;6.97;3.27;;;26.20;99.90;;;;;;5004945;28;20457;-76
2021/09/25 12:10:31;;;;;;;3.20;2.40;;;26.20;99.90;;;;;;5004211;28;20458;-76
2021/09/25 12:13:02;;;;;;;2.73;2.50;;;26.30;99.90;;;;;;5001456;28;20470;-78
2021/09/25 12:15:34;;;;;;;4.40;2.30;;;26.30;99.90;;;;;;5004669;28;20453;-77
2021/09/25 12:18:18;;;;;;;4.87;2.90;;;26.40;99.90;;;;;;5005888;28;20477;-74
2021/09/25 12:20:54;;;;;;;3.00;2.07;;;26.40;99.90;;;;;;5004690;28;20951;-77
2021/09/25 12:23:25;;;;;;;2.60;1.80;;;26.40;99.90;;;;;;5004522;28;20461;-75
2021/09/25 12:25:54;;;;;;;3.73;2.20;;;26.40;99.90;;;;;;5017619;28;20493;-75
2021/09/25 12:28:47;;;;;;;1.67;1.50;;;26.40;99.90;;;;;;5001794;28;21040;-79
2021/09/25 12:31:21;;;;;;;1.63;1.53;;;26.50;99.90;;;;;;4995405;28;20455;-76
2021/09/25 12:33:55;;;;;;;1.50;1.40;;;26.60;99.90;;;;;;5008302;28;20472;-76
2021/09/25 12:36:26;;;;;;;1.43;1.30;;;26.70;99.90;;;;;;5011103;28;20461;-76
2021/09/25 12:38:55;;;;;;;1.70;1.20;;;26.70;99.90;;;;;;5009724;28;20457;-76
2021/09/25 12:41:25;;;;;;;2.20;1.40;;;26.60;99.90;;;;;;5006235;28;20476;-76
2021/09/25 12:43:56;;;;;;;1.30;1.20;;;26.60;99.90;;;;;;5013774;28;20519;-76
2021/09/25 12:46:27;;;;;;;2.33;1.60;;;26.70;99.90;;;;;;5013760;28;20445;-74
2021/09/25 12:49:24;;;;;;;6.10;1.67;;;26.60;99.90;;;;;;5011674;28;20953;-77
2021/09/25 12:51:57;;;;;;;1.87;1.73;;;26.50;99.90;;;;;;5002951;28;20514;-78
2021/09/25 12:54:30;;;;;;;2.13;1.47;;;26.50;99.90;;;;;;5019177;28;20495;-77
2021/09/25 12:57:01;;;;;;;1.53;1.30;;;26.50;99.90;;;;;;5017232;28;20484;-75
2021/09/25 12:59:32;;;;;;;1.50;1.40;;;26.50;99.90;;;;;;5017757;28;20972;-75
2021/09/25 13:02:03;;;;;;;1.10;1.00;;;26.50;99.90;;;;;;5017767;28;20495;-78